sensor_id;sensor_type;location;lat;lon;timestamp;P1;durP1;ratioP1;P2;durP2;ratioP2
33579;SDS011;19909;43.644;-79.438;2023-07-28T00:02:13;415.27;;;292.88;;
33579;SDS011;19909;43.644;-79.438;2023-07-28T00:04:39;350.25;;;250.98;;
33579;SDS011;19909;43.644;-79.438;2023-07-28T00:07:05;397.65;;;294.40;;
33579;SDS011;19909;43.644;-79.438;2023-07-28T00:09:32;388.05;;;289.58;;
33579;SDS011;19909;43.644;-79.438;2023-07-28T00:11:58;369.02;;;286.13;;
33579;SDS011;19909;43.644;-79.438;2023-07-28T00:14:26;349.85;;;274.35;;
33579;SDS011;19909;43.644;-79.438;2023-07-28T00:16:52;327.05;;;268.00;;
33579;SDS011;19909;43.644;-79.438;2023-07-28T00:19:19;317.00;;;261.77;;
33579;SDS011;19909;43.644;-79.438;2023-07-28T00:21:49;302.60;;;254.05;;
33579;SDS011;19909;43.644;-79.438;2023-07-28T00:24:16;284.10;;;240.85;;
33579;SDS011;19909;43.644;-79.438;2023-07-28T00:26:42;266.80;;;234.30;;
33579;SDS011;19909;43.644;-79.438;2023-07-28T00:29:09;250.38;;;218.40;;
33579;SDS011;19909;43.644;-79.438;2023-07-28T00:31:35;238.68;;;210.50;;
33579;SDS011;19909;43.644;-79.438;2023-07-28T00:34:01;226.00;;;199.30;;
33579;SDS011;19909;43.644;-79.438;2023-07-28T00:36:28;213.43;;;188.55;;
33579;SDS011;19909;43.644;-79.438;2023-07-28T00:38:55;204.43;;;179.93;;
33579;SDS011;19909;43.644;-79.438;2023-07-28T00:41:21;190.00;;;169.40;;
33579;SDS011;19909;43.644;-79.438;2023-07-28T00:43:47;193.68;;;172.32;;
33579;SDS011;19909;43.644;-79.438;2023-07-28T00:46:13;182.70;;;161.05;;
33579;SDS011;19909;43.644;-79.438;2023-07-28T00:48:41;176.05;;;156.73;;
33579;SDS011;19909;43.644;-79.438;2023-07-28T00:51:07;170.07;;;151.38;;
33579;SDS011;19909;43.644;-79.438;2023-07-28T00:53:35;165.38;;;147.38;;
33579;SDS011;19909;43.644;-79.438;2023-07-28T00:56:01;159.18;;;142.07;;
33579;SDS011;19909;43.644;-79.438;2023-07-28T00:58:29;157.32;;;140.27;;
33579;SDS011;19909;43.644;-79.438;2023-07-28T01:00:55;149.65;;;133.88;;
33579;SDS011;19909;43.644;-79.438;2023-07-28T01:03:22;144.82;;;129.50;;
33579;SDS011;19909;43.644;-79.438;2023-07-28T01:11:31;128.05;;;114.63;;
33579;SDS011;19909;43.644;-79.438;2023-07-28T01:13:58;124.93;;;112.00;;
33579;SDS011;19909;43.644;-79.438;2023-07-28T01:16:24;127.85;;;114.57;;
33579;SDS011;19909;43.644;-79.438;2023-07-28T01:18:50;122.90;;;110.28;;
33579;SDS011;19909;43.644;-79.438;2023-07-28T01:21:20;115.25;;;103.57;;
33579;SDS011;19909;43.644;-79.438;2023-07-28T01:26:34;113.28;;;101.55;;
33579;SDS011;19909;43.644;-79.438;2023-07-28T01:29:04;103.53;;;92.57;;
33579;SDS011;19909;43.644;-79.438;2023-07-28T01:31:31;108.25;;;96.97;;
33579;SDS011;19909;43.644;-79.438;2023-07-28T01:33:57;103.70;;;92.80;;
33579;SDS011;19909;43.644;-79.438;2023-07-28T01:36:23;105.60;;;94.57;;
33579;SDS011;19909;43.644;-79.438;2023-07-28T01:38:52;104.00;;;93.40;;
33579;SDS011;19909;43.644;-79.438;2023-07-28T01:41:19;95.53;;;86.20;;
33579;SDS011;19909;43.644;-79.438;2023-07-28T01:43:48;96.13;;;86.32;;
33579;SDS011;19909;43.644;-79.438;2023-07-28T01:46:14;89.53;;;80.47;;
33579;SDS011;19909;43.644;-79.438;2023-07-28T01:48:40;87.60;;;78.47;;
33579;SDS011;19909;43.644;-79.438;2023-07-28T01:51:07;78.65;;;70.50;;
33579;SDS011;19909;43.644;-79.438;2023-07-28T01:53:33;76.43;;;68.72;;
33579;SDS011;19909;43.644;-79.438;2023-07-28T01:55:59;73.60;;;65.80;;
33579;SDS011;19909;43.644;-79.438;2023-07-28T01:58:26;68.72;;;61.83;;
33579;SDS011;19909;43.644;-79.438;2023-07-28T02:00:52;66.63;;;59.95;;
33579;SDS011;19909;43.644;-79.438;2023-07-28T02:03:18;66.25;;;59.83;;
33579;SDS011;19909;43.644;-79.438;2023-07-28T02:05:44;63.30;;;57.03;;
33579;SDS011;19909;43.644;-79.438;2023-07-28T02:08:10;61.65;;;55.55;;
33579;SDS011;19909;43.644;-79.438;2023-07-28T02:10:36;60.88;;;54.67;;
33579;SDS011;19909;43.644;-79.438;2023-07-28T02:13:03;57.47;;;51.80;;
33579;SDS011;19909;43.644;-79.438;2023-07-28T02:15:29;57.58;;;51.97;;
33579;SDS011;19909;43.644;-79.438;2023-07-28T02:17:55;58.85;;;52.97;;
33579;SDS011;19909;43.644;-79.438;2023-07-28T02:20:21;59.53;;;53.55;;
33579;SDS011;19909;43.644;-79.438;2023-07-28T02:22:48;55.90;;;50.42;;
33579;SDS011;19909;43.644;-79.438;2023-07-28T02:25:14;56.83;;;51.15;;
33579;SDS011;19909;43.644;-79.438;2023-07-28T02:27:40;52.88;;;47.67;;
33579;SDS011;19909;43.644;-79.438;2023-07-28T02:30:06;50.75;;;45.65;;
33579;SDS011;19909;43.644;-79.438;2023-07-28T02:32:33;51.17;;;46.00;;
33579;SDS011;19909;43.644;-79.438;2023-07-28T02:34:59;51.15;;;46.03;;
33579;SDS011;19909;43.644;-79.438;2023-07-28T02:37:25;45.60;;;41.08;;
33579;SDS011;19909;43.644;-79.438;2023-07-28T02:39:51;44.42;;;40.03;;
33579;SDS011;19909;43.644;-79.438;2023-07-28T02:42:17;41.90;;;37.83;;
33579;SDS011;19909;43.644;-79.438;2023-07-28T02:44:44;41.90;;;37.78;;
33579;SDS011;19909;43.644;-79.438;2023-07-28T02:47:10;42.63;;;38.22;;
33579;SDS011;19909;43.644;-79.438;2023-07-28T02:49:36;38.70;;;34.88;;
33579;SDS011;19909;43.644;-79.438;2023-07-28T02:52:02;37.72;;;34.10;;
33579;SDS011;19909;43.644;-79.438;2023-07-28T02:54:29;37.70;;;34.08;;
33579;SDS011;19909;43.644;-79.438;2023-07-28T02:56:55;36.78;;;33.33;;
33579;SDS011;19909;43.644;-79.438;2023-07-28T02:59:21;34.83;;;31.35;;
33579;SDS011;19909;43.644;-79.438;2023-07-28T03:01:50;33.10;;;30.00;;
33579;SDS011;19909;43.644;-79.438;2023-07-28T03:04:17;31.63;;;28.60;;
33579;SDS011;19909;43.644;-79.438;2023-07-28T03:06:45;31.38;;;28.45;;
33579;SDS011;19909;43.644;-79.438;2023-07-28T03:09:12;28.80;;;26.10;;
33579;SDS011;19909;43.644;-79.438;2023-07-28T03:11:38;28.42;;;25.42;;
33579;SDS011;19909;43.644;-79.438;2023-07-28T03:14:04;28.08;;;25.15;;
33579;SDS011;19909;43.644;-79.438;2023-07-28T03:16:30;26.45;;;23.70;;
33579;SDS011;19909;43.644;-79.438;2023-07-28T03:18:56;26.88;;;24.08;;
33579;SDS011;19909;43.644;-79.438;2023-07-28T03:21:22;26.02;;;23.42;;
33579;SDS011;19909;43.644;-79.438;2023-07-28T03:23:49;28.85;;;25.95;;
33579;SDS011;19909;43.644;-79.438;2023-07-28T03:26:15;29.15;;;26.20;;
33579;SDS011;19909;43.644;-79.438;2023-07-28T03:28:41;27.35;;;24.63;;
33579;SDS011;19909;43.644;-79.438;2023-07-28T03:31:07;27.38;;;24.70;;
33579;SDS011;19909;43.644;-79.438;2023-07-28T03:33:33;27.17;;;24.45;;
33579;SDS011;19909;43.644;-79.438;2023-07-28T03:35:59;25.42;;;22.83;;
33579;SDS011;19909;43.644;-79.438;2023-07-28T03:38:25;24.33;;;21.40;;
33579;SDS011;19909;43.644;-79.438;2023-07-28T03:40:51;24.25;;;21.85;;
33579;SDS011;19909;43.644;-79.438;2023-07-28T03:43:18;25.50;;;23.00;;
33579;SDS011;19909;43.644;-79.438;2023-07-28T03:45:45;27.10;;;23.35;;
33579;SDS011;19909;43.644;-79.438;2023-07-28T03:48:11;26.30;;;23.65;;
33579;SDS011;19909;43.644;-79.438;2023-07-28T03:50:37;25.23;;;22.73;;
33579;SDS011;19909;43.644;-79.438;2023-07-28T03:53:03;25.77;;;23.27;;
33579;SDS011;19909;43.644;-79.438;2023-07-28T03:55:30;25.75;;;23.35;;
33579;SDS011;19909;43.644;-79.438;2023-07-28T03:57:56;25.48;;;22.95;;
33579;SDS011;19909;43.644;-79.438;2023-07-28T04:00:22;24.48;;;21.98;;
33579;SDS011;19909;43.644;-79.438;2023-07-28T04:02:48;25.92;;;23.20;;
33579;SDS011;19909;43.644;-79.438;2023-07-28T04:05:14;25.73;;;23.08;;
33579;SDS011;19909;43.644;-79.438;2023-07-28T04:07:40;24.75;;;21.67;;
33579;SDS011;19909;43.644;-79.438;2023-07-28T04:10:06;24.50;;;22.10;;
33579;SDS011;19909;43.644;-79.438;2023-07-28T04:12:33;23.83;;;21.63;;
33579;SDS011;19909;43.644;-79.438;2023-07-28T04:14:59;24.00;;;21.70;;
33579;SDS011;19909;43.644;-79.438;2023-07-28T04:17:25;24.40;;;21.88;;
33579;SDS011;19909;43.644;-79.438;2023-07-28T04:19:52;24.20;;;21.85;;
33579;SDS011;19909;43.644;-79.438;2023-07-28T04:22:18;23.65;;;21.30;;
33579;SDS011;19909;43.644;-79.438;2023-07-28T04:24:46;22.80;;;19.98;;
33579;SDS011;19909;43.644;-79.438;2023-07-28T04:27:15;23.48;;;21.17;;
33579;SDS011;19909;43.644;-79.438;2023-07-28T04:29:41;21.50;;;19.48;;
33579;SDS011;19909;43.644;-79.438;2023-07-28T04:32:08;22.65;;;20.42;;
33579;SDS011;19909;43.644;-79.438;2023-07-28T04:34:34;21.80;;;19.58;;
33579;SDS011;19909;43.644;-79.438;2023-07-28T04:37:00;24.65;;;22.17;;
33579;SDS011;19909;43.644;-79.438;2023-07-28T04:39:26;24.35;;;22.00;;
33579;SDS011;19909;43.644;-79.438;2023-07-28T04:41:52;21.67;;;19.48;;
33579;SDS011;19909;43.644;-79.438;2023-07-28T04:44:19;22.48;;;20.20;;
33579;SDS011;19909;43.644;-79.438;2023-07-28T04:46:45;22.10;;;19.83;;
33579;SDS011;19909;43.644;-79.438;2023-07-28T04:49:14;22.10;;;19.90;;
33579;SDS011;19909;43.644;-79.438;2023-07-28T04:51:40;22.55;;;20.02;;
33579;SDS011;19909;43.644;-79.438;2023-07-28T04:54:07;22.95;;;20.50;;
33579;SDS011;19909;43.644;-79.438;2023-07-28T04:56:33;21.20;;;18.92;;
33579;SDS011;19909;43.644;-79.438;2023-07-28T04:58:59;21.75;;;19.40;;
33579;SDS011;19909;43.644;-79.438;2023-07-28T05:01:25;20.95;;;18.85;;
33579;SDS011;19909;43.644;-79.438;2023-07-28T05:03:52;21.17;;;19.08;;
33579;SDS011;19909;43.644;-79.438;2023-07-28T05:06:18;22.92;;;20.60;;
33579;SDS011;19909;43.644;-79.438;2023-07-28T05:08:44;21.02;;;18.92;;
33579;SDS011;19909;43.644;-79.438;2023-07-28T05:11:10;22.63;;;20.38;;
33579;SDS011;19909;43.644;-79.438;2023-07-28T05:13:37;21.40;;;19.20;;
33579;SDS011;19909;43.644;-79.438;2023-07-28T05:16:03;20.58;;;18.45;;
33579;SDS011;19909;43.644;-79.438;2023-07-28T05:18:29;22.58;;;20.27;;
33579;SDS011;19909;43.644;-79.438;2023-07-28T05:20:55;20.55;;;18.45;;
33579;SDS011;19909;43.644;-79.438;2023-07-28T05:23:21;20.15;;;18.15;;
33579;SDS011;19909;43.644;-79.438;2023-07-28T05:25:47;20.77;;;18.48;;
33579;SDS011;19909;43.644;-79.438;2023-07-28T05:28:14;22.50;;;20.10;;
33579;SDS011;19909;43.644;-79.438;2023-07-28T05:30:40;21.05;;;19.05;;
33579;SDS011;19909;43.644;-79.438;2023-07-28T05:33:06;21.13;;;19.05;;
33579;SDS011;19909;43.644;-79.438;2023-07-28T05:35:32;21.33;;;19.23;;
33579;SDS011;19909;43.644;-79.438;2023-07-28T05:37:58;20.95;;;18.95;;
33579;SDS011;19909;43.644;-79.438;2023-07-28T05:40:24;23.08;;;18.38;;
33579;SDS011;19909;43.644;-79.438;2023-07-28T05:42:50;22.42;;;20.10;;
33579;SDS011;19909;43.644;-79.438;2023-07-28T05:45:17;22.65;;;18.88;;
33579;SDS011;19909;43.644;-79.438;2023-07-28T05:47:43;19.50;;;17.40;;
33579;SDS011;19909;43.644;-79.438;2023-07-28T05:50:09;19.40;;;17.40;;
33579;SDS011;19909;43.644;-79.438;2023-07-28T05:52:35;21.77;;;19.40;;
33579;SDS011;19909;43.644;-79.438;2023-07-28T05:55:02;21.08;;;19.00;;
33579;SDS011;19909;43.644;-79.438;2023-07-28T05:57:28;20.23;;;18.13;;
33579;SDS011;19909;43.644;-79.438;2023-07-28T05:59:54;20.40;;;18.40;;
33579;SDS011;19909;43.644;-79.438;2023-07-28T06:02:21;20.30;;;18.20;;
33579;SDS011;19909;43.644;-79.438;2023-07-28T06:04:47;19.08;;;17.17;;
33579;SDS011;19909;43.644;-79.438;2023-07-28T06:07:13;21.20;;;18.83;;
33579;SDS011;19909;43.644;-79.438;2023-07-28T06:09:39;20.85;;;18.65;;
33579;SDS011;19909;43.644;-79.438;2023-07-28T06:12:05;19.60;;;17.25;;
33579;SDS011;19909;43.644;-79.438;2023-07-28T06:14:32;20.30;;;17.70;;
33579;SDS011;19909;43.644;-79.438;2023-07-28T06:16:58;20.08;;;17.88;;
33579;SDS011;19909;43.644;-79.438;2023-07-28T06:19:24;20.05;;;17.85;;
33579;SDS011;19909;43.644;-79.438;2023-07-28T06:21:50;21.05;;;18.95;;
33579;SDS011;19909;43.644;-79.438;2023-07-28T06:24:17;20.20;;;18.20;;
33579;SDS011;19909;43.644;-79.438;2023-07-28T06:26:43;20.95;;;18.83;;
33579;SDS011;19909;43.644;-79.438;2023-07-28T06:29:09;19.42;;;17.52;;
33579;SDS011;19909;43.644;-79.438;2023-07-28T06:31:35;19.10;;;17.10;;
33579;SDS011;19909;43.644;-79.438;2023-07-28T06:34:01;19.83;;;17.83;;
33579;SDS011;19909;43.644;-79.438;2023-07-28T06:36:28;20.33;;;16.55;;
33579;SDS011;19909;43.644;-79.438;2023-07-28T06:38:54;19.25;;;17.25;;
33579;SDS011;19909;43.644;-79.438;2023-07-28T06:41:20;19.52;;;17.42;;
33579;SDS011;19909;43.644;-79.438;2023-07-28T06:43:47;20.52;;;18.45;;
33579;SDS011;19909;43.644;-79.438;2023-07-28T06:46:16;21.02;;;17.40;;
33579;SDS011;19909;43.644;-79.438;2023-07-28T06:48:42;19.58;;;17.65;;
33579;SDS011;19909;43.644;-79.438;2023-07-28T06:51:08;18.10;;;16.30;;
33579;SDS011;19909;43.644;-79.438;2023-07-28T06:53:34;19.88;;;17.90;;
33579;SDS011;19909;43.644;-79.438;2023-07-28T06:56:00;19.70;;;17.70;;
33579;SDS011;19909;43.644;-79.438;2023-07-28T06:58:27;19.33;;;17.33;;
33579;SDS011;19909;43.644;-79.438;2023-07-28T07:00:53;19.65;;;17.55;;
33579;SDS011;19909;43.644;-79.438;2023-07-28T07:03:21;19.52;;;16.95;;
33579;SDS011;19909;43.644;-79.438;2023-07-28T07:05:49;19.00;;;17.00;;
33579;SDS011;19909;43.644;-79.438;2023-07-28T07:08:15;18.67;;;16.30;;
33579;SDS011;19909;43.644;-79.438;2023-07-28T07:10:50;19.10;;;17.10;;
33579;SDS011;19909;43.644;-79.438;2023-07-28T07:13:17;20.23;;;17.05;;
33579;SDS011;19909;43.644;-79.438;2023-07-28T07:15:44;20.60;;;18.30;;
33579;SDS011;19909;43.644;-79.438;2023-07-28T07:18:11;19.52;;;17.63;;
33579;SDS011;19909;43.644;-79.438;2023-07-28T07:20:37;18.63;;;16.73;;
33579;SDS011;19909;43.644;-79.438;2023-07-28T07:23:04;19.40;;;17.40;;
33579;SDS011;19909;43.644;-79.438;2023-07-28T07:25:30;19.35;;;17.33;;
33579;SDS011;19909;43.644;-79.438;2023-07-28T07:27:56;20.00;;;17.48;;
33579;SDS011;19909;43.644;-79.438;2023-07-28T07:30:23;19.02;;;17.02;;
33579;SDS011;19909;43.644;-79.438;2023-07-28T07:32:49;18.63;;;16.63;;
33579;SDS011;19909;43.644;-79.438;2023-07-28T07:35:15;19.23;;;17.17;;
33579;SDS011;19909;43.644;-79.438;2023-07-28T07:37:41;19.45;;;16.48;;
33579;SDS011;19909;43.644;-79.438;2023-07-28T07:40:08;18.20;;;15.77;;
33579;SDS011;19909;43.644;-79.438;2023-07-28T07:42:41;19.30;;;17.30;;
33579;SDS011;19909;43.644;-79.438;2023-07-28T07:45:10;18.65;;;16.73;;
33579;SDS011;19909;43.644;-79.438;2023-07-28T07:47:37;19.40;;;16.92;;
33579;SDS011;19909;43.644;-79.438;2023-07-28T07:50:07;18.55;;;16.65;;
33579;SDS011;19909;43.644;-79.438;2023-07-28T07:52:34;19.67;;;17.50;;
33579;SDS011;19909;43.644;-79.438;2023-07-28T07:55:01;19.23;;;17.23;;
33579;SDS011;19909;43.644;-79.438;2023-07-28T07:57:28;18.80;;;16.40;;
33579;SDS011;19909;43.644;-79.438;2023-07-28T07:59:58;17.20;;;14.90;;
33579;SDS011;19909;43.644;-79.438;2023-07-28T08:02:24;18.40;;;15.75;;
33579;SDS011;19909;43.644;-79.438;2023-07-28T08:04:53;18.48;;;16.48;;
33579;SDS011;19909;43.644;-79.438;2023-07-28T08:07:20;20.58;;;18.02;;
33579;SDS011;19909;43.644;-79.438;2023-07-28T08:09:47;17.88;;;16.00;;
33579;SDS011;19909;43.644;-79.438;2023-07-28T08:12:14;17.67;;;15.85;;
33579;SDS011;19909;43.644;-79.438;2023-07-28T08:14:40;17.65;;;15.75;;
33579;SDS011;19909;43.644;-79.438;2023-07-28T08:17:07;18.77;;;16.35;;
33579;SDS011;19909;43.644;-79.438;2023-07-28T08:19:34;20.27;;;17.08;;
33579;SDS011;19909;43.644;-79.438;2023-07-28T08:22:01;19.60;;;17.08;;
33579;SDS011;19909;43.644;-79.438;2023-07-28T08:24:30;17.40;;;14.95;;
33579;SDS011;19909;43.644;-79.438;2023-07-28T08:26:57;18.25;;;15.82;;
33579;SDS011;19909;43.644;-79.438;2023-07-28T08:29:23;19.33;;;16.38;;
33579;SDS011;19909;43.644;-79.438;2023-07-28T08:31:49;18.90;;;15.68;;
33579;SDS011;19909;43.644;-79.438;2023-07-28T08:34:15;20.15;;;16.88;;
33579;SDS011;19909;43.644;-79.438;2023-07-28T08:36:43;19.85;;;17.83;;
33579;SDS011;19909;43.644;-79.438;2023-07-28T08:39:09;18.83;;;16.83;;
33579;SDS011;19909;43.644;-79.438;2023-07-28T08:41:35;20.33;;;17.75;;
33579;SDS011;19909;43.644;-79.438;2023-07-28T08:44:02;18.70;;;16.80;;
33579;SDS011;19909;43.644;-79.438;2023-07-28T08:46:28;18.90;;;16.65;;
33579;SDS011;19909;43.644;-79.438;2023-07-28T08:48:56;19.60;;;17.48;;
33579;SDS011;19909;43.644;-79.438;2023-07-28T08:51:22;20.98;;;17.20;;
33579;SDS011;19909;43.644;-79.438;2023-07-28T08:53:51;21.20;;;18.20;;
33579;SDS011;19909;43.644;-79.438;2023-07-28T08:56:18;19.17;;;16.77;;
33579;SDS011;19909;43.644;-79.438;2023-07-28T08:58:44;20.20;;;17.35;;
33579;SDS011;19909;43.644;-79.438;2023-07-28T09:01:10;20.45;;;17.35;;
33579;SDS011;19909;43.644;-79.438;2023-07-28T09:03:40;21.25;;;19.05;;
33579;SDS011;19909;43.644;-79.438;2023-07-28T09:06:07;19.80;;;17.70;;
33579;SDS011;19909;43.644;-79.438;2023-07-28T09:08:36;20.10;;;18.02;;
33579;SDS011;19909;43.644;-79.438;2023-07-28T09:11:03;20.95;;;18.60;;
33579;SDS011;19909;43.644;-79.438;2023-07-28T09:13:39;21.52;;;17.70;;
33579;SDS011;19909;43.644;-79.438;2023-07-28T09:16:18;22.90;;;19.30;;
33579;SDS011;19909;43.644;-79.438;2023-07-28T09:18:44;21.45;;;18.55;;
33579;SDS011;19909;43.644;-79.438;2023-07-28T09:21:17;20.67;;;17.92;;
33579;SDS011;19909;43.644;-79.438;2023-07-28T09:23:46;20.80;;;17.65;;
33579;SDS011;19909;43.644;-79.438;2023-07-28T09:26:14;23.08;;;18.75;;
33579;SDS011;19909;43.644;-79.438;2023-07-28T09:28:41;21.42;;;18.48;;
33579;SDS011;19909;43.644;-79.438;2023-07-28T09:31:08;23.33;;;18.77;;
33579;SDS011;19909;43.644;-79.438;2023-07-28T09:33:35;23.92;;;18.55;;
33579;SDS011;19909;43.644;-79.438;2023-07-28T09:36:09;23.05;;;20.65;;
33579;SDS011;19909;43.644;-79.438;2023-07-28T09:38:37;21.65;;;19.45;;
33579;SDS011;19909;43.644;-79.438;2023-07-28T09:41:06;20.80;;;18.55;;
33579;SDS011;19909;43.644;-79.438;2023-07-28T09:43:38;23.90;;;19.65;;
33579;SDS011;19909;43.644;-79.438;2023-07-28T09:46:09;22.27;;;18.40;;
33579;SDS011;19909;43.644;-79.438;2023-07-28T09:48:38;20.35;;;18.08;;
33579;SDS011;19909;43.644;-79.438;2023-07-28T09:51:14;21.92;;;18.40;;
33579;SDS011;19909;43.644;-79.438;2023-07-28T09:53:49;20.60;;;18.40;;
33579;SDS011;19909;43.644;-79.438;2023-07-28T09:56:20;23.25;;;19.80;;
33579;SDS011;19909;43.644;-79.438;2023-07-28T09:58:51;21.58;;;18.58;;
33579;SDS011;19909;43.644;-79.438;2023-07-28T10:01:19;23.33;;;18.33;;
33579;SDS011;19909;43.644;-79.438;2023-07-28T10:03:47;20.17;;;17.95;;
33579;SDS011;19909;43.644;-79.438;2023-07-28T10:06:14;22.75;;;17.73;;
33579;SDS011;19909;43.644;-79.438;2023-07-28T10:08:44;23.08;;;20.58;;
33579;SDS011;19909;43.644;-79.438;2023-07-28T10:11:14;21.25;;;18.92;;
33579;SDS011;19909;43.644;-79.438;2023-07-28T10:13:42;21.77;;;19.52;;
33579;SDS011;19909;43.644;-79.438;2023-07-28T10:16:09;21.38;;;19.08;;
33579;SDS011;19909;43.644;-79.438;2023-07-28T10:18:36;19.73;;;17.58;;
33579;SDS011;19909;43.644;-79.438;2023-07-28T10:21:07;21.58;;;18.60;;
33579;SDS011;19909;43.644;-79.438;2023-07-28T10:23:40;19.27;;;16.80;;
33579;SDS011;19909;43.644;-79.438;2023-07-28T10:26:07;20.40;;;17.63;;
33579;SDS011;19909;43.644;-79.438;2023-07-28T10:28:35;19.75;;;17.65;;
33579;SDS011;19909;43.644;-79.438;2023-07-28T10:31:07;23.17;;;19.27;;
33579;SDS011;19909;43.644;-79.438;2023-07-28T10:33:39;19.92;;;17.67;;
33579;SDS011;19909;43.644;-79.438;2023-07-28T10:38:43;19.98;;;17.80;;
33579;SDS011;19909;43.644;-79.438;2023-07-28T10:41:14;20.08;;;17.52;;
33579;SDS011;19909;43.644;-79.438;2023-07-28T10:43:42;22.63;;;20.02;;
33579;SDS011;19909;43.644;-79.438;2023-07-28T10:46:10;23.73;;;18.10;;
33579;SDS011;19909;43.644;-79.438;2023-07-28T10:48:43;20.90;;;18.73;;
33579;SDS011;19909;43.644;-79.438;2023-07-28T10:51:12;20.03;;;17.93;;
33579;SDS011;19909;43.644;-79.438;2023-07-28T10:53:49;21.13;;;18.65;;
33579;SDS011;19909;43.644;-79.438;2023-07-28T10:56:16;20.40;;;17.75;;
33579;SDS011;19909;43.644;-79.438;2023-07-28T10:58:42;19.95;;;16.58;;
33579;SDS011;19909;43.644;-79.438;2023-07-28T11:01:08;17.95;;;15.95;;
33579;SDS011;19909;43.644;-79.438;2023-07-28T11:03:34;22.00;;;17.52;;
33579;SDS011;19909;43.644;-79.438;2023-07-28T11:06:01;19.33;;;16.90;;
33579;SDS011;19909;43.644;-79.438;2023-07-28T11:08:29;19.05;;;17.00;;
33579;SDS011;19909;43.644;-79.438;2023-07-28T11:10:57;20.00;;;16.70;;
33579;SDS011;19909;43.644;-79.438;2023-07-28T11:13:23;21.50;;;17.77;;
33579;SDS011;19909;43.644;-79.438;2023-07-28T11:15:50;20.45;;;17.20;;
33579;SDS011;19909;43.644;-79.438;2023-07-28T11:18:16;19.85;;;17.20;;
33579;SDS011;19909;43.644;-79.438;2023-07-28T11:20:42;18.60;;;16.60;;
33579;SDS011;19909;43.644;-79.438;2023-07-28T11:23:10;17.95;;;16.10;;
33579;SDS011;19909;43.644;-79.438;2023-07-28T11:25:39;19.35;;;15.85;;
33579;SDS011;19909;43.644;-79.438;2023-07-28T11:28:07;21.83;;;17.25;;
33579;SDS011;19909;43.644;-79.438;2023-07-28T11:30:35;21.98;;;17.33;;
33579;SDS011;19909;43.644;-79.438;2023-07-28T11:33:10;21.30;;;17.53;;
33579;SDS011;19909;43.644;-79.438;2023-07-28T11:35:37;19.27;;;15.50;;
33579;SDS011;19909;43.644;-79.438;2023-07-28T11:38:04;19.50;;;17.27;;
33579;SDS011;19909;43.644;-79.438;2023-07-28T11:40:31;18.42;;;16.42;;
33579;SDS011;19909;43.644;-79.438;2023-07-28T11:42:58;20.23;;;16.25;;
33579;SDS011;19909;43.644;-79.438;2023-07-28T11:45:24;20.80;;;18.50;;
33579;SDS011;19909;43.644;-79.438;2023-07-28T11:48:01;19.15;;;17.13;;
33579;SDS011;19909;43.644;-79.438;2023-07-28T11:50:38;18.58;;;16.63;;
33579;SDS011;19909;43.644;-79.438;2023-07-28T11:53:05;19.60;;;17.58;;
33579;SDS011;19909;43.644;-79.438;2023-07-28T11:55:33;20.90;;;18.45;;
33579;SDS011;19909;43.644;-79.438;2023-07-28T11:58:03;20.80;;;17.80;;
33579;SDS011;19909;43.644;-79.438;2023-07-28T12:00:35;24.55;;;19.67;;
33579;SDS011;19909;43.644;-79.438;2023-07-28T12:03:04;20.40;;;16.85;;
33579;SDS011;19909;43.644;-79.438;2023-07-28T12:05:35;22.83;;;17.73;;
33579;SDS011;19909;43.644;-79.438;2023-07-28T12:08:01;21.38;;;17.85;;
33579;SDS011;19909;43.644;-79.438;2023-07-28T12:10:33;21.98;;;16.60;;
33579;SDS011;19909;43.644;-79.438;2023-07-28T12:13:06;24.63;;;19.77;;
33579;SDS011;19909;43.644;-79.438;2023-07-28T12:15:34;21.88;;;17.98;;
33579;SDS011;19909;43.644;-79.438;2023-07-28T12:18:07;20.60;;;18.40;;
33579;SDS011;19909;43.644;-79.438;2023-07-28T12:20:44;20.75;;;18.45;;
33579;SDS011;19909;43.644;-79.438;2023-07-28T12:23:16;19.45;;;17.50;;
33579;SDS011;19909;43.644;-79.438;2023-07-28T12:25:45;18.25;;;16.35;;
33579;SDS011;19909;43.644;-79.438;2023-07-28T12:28:12;20.25;;;17.50;;
33579;SDS011;19909;43.644;-79.438;2023-07-28T12:30:39;21.05;;;16.52;;
33579;SDS011;19909;43.644;-79.438;2023-07-28T12:33:05;19.83;;;16.02;;
33579;SDS011;19909;43.644;-79.438;2023-07-28T12:35:33;22.40;;;18.50;;
33579;SDS011;19909;43.644;-79.438;2023-07-28T12:38:00;18.52;;;15.45;;
33579;SDS011;19909;43.644;-79.438;2023-07-28T12:40:30;21.75;;;17.58;;
33579;SDS011;19909;43.644;-79.438;2023-07-28T12:42:58;19.02;;;17.05;;
33579;SDS011;19909;43.644;-79.438;2023-07-28T12:45:25;18.77;;;16.80;;
33579;SDS011;19909;43.644;-79.438;2023-07-28T12:47:52;18.33;;;16.20;;
33579;SDS011;19909;43.644;-79.438;2023-07-28T12:50:19;21.38;;;16.52;;
33579;SDS011;19909;43.644;-79.438;2023-07-28T12:52:49;18.30;;;15.55;;
33579;SDS011;19909;43.644;-79.438;2023-07-28T12:55:16;18.65;;;14.95;;
33579;SDS011;19909;43.644;-79.438;2023-07-28T12:57:43;19.42;;;16.90;;
33579;SDS011;19909;43.644;-79.438;2023-07-28T13:00:10;20.75;;;17.65;;
33579;SDS011;19909;43.644;-79.438;2023-07-28T13:02:41;18.55;;;16.63;;
33579;SDS011;19909;43.644;-79.438;2023-07-28T13:05:08;17.92;;;16.05;;
33579;SDS011;19909;43.644;-79.438;2023-07-28T13:07:37;18.95;;;15.60;;
33579;SDS011;19909;43.644;-79.438;2023-07-28T13:10:05;20.90;;;16.67;;
33579;SDS011;19909;43.644;-79.438;2023-07-28T13:12:32;20.80;;;16.05;;
33579;SDS011;19909;43.644;-79.438;2023-07-28T13:14:58;17.35;;;15.23;;
33579;SDS011;19909;43.644;-79.438;2023-07-28T13:17:24;18.20;;;15.82;;
33579;SDS011;19909;43.644;-79.438;2023-07-28T13:19:50;17.92;;;15.60;;
33579;SDS011;19909;43.644;-79.438;2023-07-28T13:22:17;19.45;;;16.42;;
33579;SDS011;19909;43.644;-79.438;2023-07-28T13:24:43;17.95;;;16.08;;
33579;SDS011;19909;43.644;-79.438;2023-07-28T13:27:09;17.90;;;16.00;;
33579;SDS011;19909;43.644;-79.438;2023-07-28T13:29:35;20.52;;;17.15;;
33579;SDS011;19909;43.644;-79.438;2023-07-28T13:32:01;17.85;;;14.98;;
33579;SDS011;19909;43.644;-79.438;2023-07-28T13:34:28;17.88;;;15.00;;
33579;SDS011;19909;43.644;-79.438;2023-07-28T13:36:55;17.42;;;15.23;;
33579;SDS011;19909;43.644;-79.438;2023-07-28T13:39:21;17.27;;;15.00;;
33579;SDS011;19909;43.644;-79.438;2023-07-28T13:41:48;16.65;;;14.40;;
33579;SDS011;19909;43.644;-79.438;2023-07-28T13:44:15;17.17;;;15.40;;
33579;SDS011;19909;43.644;-79.438;2023-07-28T13:46:41;19.15;;;15.20;;
33579;SDS011;19909;43.644;-79.438;2023-07-28T13:49:07;17.80;;;15.50;;
33579;SDS011;19909;43.644;-79.438;2023-07-28T13:51:33;20.83;;;15.07;;
33579;SDS011;19909;43.644;-79.438;2023-07-28T13:53:59;16.48;;;14.63;;
33579;SDS011;19909;43.644;-79.438;2023-07-28T13:56:25;19.27;;;15.90;;
33579;SDS011;19909;43.644;-79.438;2023-07-28T13:58:53;20.13;;;15.93;;
33579;SDS011;19909;43.644;-79.438;2023-07-28T14:01:19;18.10;;;16.20;;
33579;SDS011;19909;43.644;-79.438;2023-07-28T14:03:46;18.77;;;16.80;;
33579;SDS011;19909;43.644;-79.438;2023-07-28T14:06:13;18.48;;;16.45;;